sensor_id;sensor_type;location;lat;lon;timestamp;pressure;altitude;pressure_sealevel;temperature;humidity
52625;BME280;38519;52.540;13.410;2023-03-04T00:02:16;101087.47;;;1.51;100.00
52625;BME280;38519;52.540;13.410;2023-03-04T00:04:42;101078.28;;;1.53;100.00
52625;BME280;38519;52.540;13.410;2023-03-04T00:07:07;101079.94;;;1.52;100.00
52625;BME280;38519;52.540;13.410;2023-03-04T00:09:32;101076.81;;;1.55;100.00
52625;BME280;38519;52.540;13.410;2023-03-04T00:11:57;101070.41;;;1.51;100.00
52625;BME280;38519;52.540;13.410;2023-03-04T00:14:23;101073.31;;;1.54;100.00
52625;BME280;38519;52.540;13.410;2023-03-04T00:16:48;101074.00;;;1.60;100.00
52625;BME280;38519;52.540;13.410;2023-03-04T00:19:13;101062.78;;;1.67;100.00
52625;BME280;38519;52.540;13.410;2023-03-04T00:21:38;101066.06;;;1.66;100.00
52625;BME280;38519;52.540;13.410;2023-03-04T00:24:04;101068.09;;;1.69;100.00
52625;BME280;38519;52.540;13.410;2023-03-04T00:26:30;101058.63;;;1.76;100.00
52625;BME280;38519;52.540;13.410;2023-03-04T00:28:55;101057.00;;;1.77;100.00
52625;BME280;38519;52.540;13.410;2023-03-04T00:31:20;101061.63;;;1.72;100.00
52625;BME280;38519;52.540;13.410;2023-03-04T00:33:46;101055.50;;;1.79;100.00
52625;BME280;38519;52.540;13.410;2023-03-04T00:36:11;101060.47;;;1.77;100.00
52625;BME280;38519;52.540;13.410;2023-03-04T00:38:36;101052.94;;;1.79;100.00
52625;BME280;38519;52.540;13.410;2023-03-04T00:41:01;101046.63;;;1.84;100.00
52625;BME280;38519;52.540;13.410;2023-03-04T00:43:27;101049.03;;;1.82;100.00
52625;BME280;38519;52.540;13.410;2023-03-04T00:45:52;101047.88;;;1.88;100.00
52625;BME280;38519;52.540;13.410;2023-03-04T00:48:18;101044.41;;;1.87;100.00
52625;BME280;38519;52.540;13.410;2023-03-04T00:50:43;101048.84;;;1.81;100.00
52625;BME280;38519;52.540;13.410;2023-03-04T00:53:09;101048.06;;;1.89;100.00
52625;BME280;38519;52.540;13.410;2023-03-04T00:55:34;101043.06;;;1.91;100.00
52625;BME280;38519;52.540;13.410;2023-03-04T00:57:59;101041.28;;;1.90;100.00
52625;BME280;38519;52.540;13.410;2023-03-04T01:00:25;101037.88;;;1.98;100.00
52625;BME280;38519;52.540;13.410;2023-03-04T01:02:50;101043.94;;;1.98;100.00
52625;BME280;38519;52.540;13.410;2023-03-04T01:05:15;101049.09;;;1.98;100.00
52625;BME280;38519;52.540;13.410;2023-03-04T01:07:41;101038.97;;;2.00;100.00
52625;BME280;38519;52.540;13.410;2023-03-04T01:10:07;101030.16;;;1.98;100.00
52625;BME280;38519;52.540;13.410;2023-03-04T01:12:32;101034.97;;;1.95;100.00
52625;BME280;38519;52.540;13.410;2023-03-04T01:14:58;101034.00;;;2.02;100.00
52625;BME280;38519;52.540;13.410;2023-03-04T01:17:23;101030.84;;;2.04;100.00
52625;BME280;38519;52.540;13.410;2023-03-04T01:19:48;101032.66;;;2.05;100.00
52625;BME280;38519;52.540;13.410;2023-03-04T01:22:13;101022.34;;;2.05;100.00
52625;BME280;38519;52.540;13.410;2023-03-04T01:24:40;101016.09;;;2.10;100.00
52625;BME280;38519;52.540;13.410;2023-03-04T01:27:06;101021.28;;;2.03;100.00
52625;BME280;38519;52.540;13.410;2023-03-04T01:29:31;101019.03;;;2.06;100.00
52625;BME280;38519;52.540;13.410;2023-03-04T01:31:56;101023.38;;;2.14;100.00
52625;BME280;38519;52.540;13.410;2023-03-04T01:34:21;101013.41;;;2.17;100.00
52625;BME280;38519;52.540;13.410;2023-03-04T01:36:47;101008.28;;;2.17;100.00
52625;BME280;38519;52.540;13.410;2023-03-04T01:39:13;101013.66;;;2.12;100.00
52625;BME280;38519;52.540;13.410;2023-03-04T01:41:38;101007.94;;;2.14;100.00
52625;BME280;38519;52.540;13.410;2023-03-04T01:44:04;101013.59;;;2.19;100.00
52625;BME280;38519;52.540;13.410;2023-03-04T01:46:30;101009.44;;;2.12;100.00
52625;BME280;38519;52.540;13.410;2023-03-04T01:48:55;101002.78;;;2.14;100.00
52625;BME280;38519;52.540;13.410;2023-03-04T01:51:21;101001.41;;;2.25;100.00
52625;BME280;38519;52.540;13.410;2023-03-04T01:53:47;100990.09;;;2.32;100.00
52625;BME280;38519;52.540;13.410;2023-03-04T01:56:24;100987.84;;;2.35;100.00
52625;BME280;38519;52.540;13.410;2023-03-04T01:59:06;100994.41;;;2.40;100.00
52625;BME280;38519;52.540;13.410;2023-03-04T02:01:32;100987.13;;;2.36;100.00
52625;BME280;38519;52.540;13.410;2023-03-04T02:03:57;100988.09;;;2.45;100.00
52625;BME280;38519;52.540;13.410;2023-03-04T02:06:22;100994.38;;;2.47;100.00
52625;BME280;38519;52.540;13.410;2023-03-04T02:08:48;100991.19;;;2.50;100.00
52625;BME280;38519;52.540;13.410;2023-03-04T02:11:13;100979.63;;;2.46;100.00
52625;BME280;38519;52.540;13.410;2023-03-04T02:13:38;100976.22;;;2.54;100.00
52625;BME280;38519;52.540;13.410;2023-03-04T02:16:04;100971.75;;;2.61;100.00
52625;BME280;38519;52.540;13.410;2023-03-04T02:18:29;100979.63;;;2.62;100.00
52625;BME280;38519;52.540;13.410;2023-03-04T02:21:07;100973.13;;;2.66;100.00
52625;BME280;38519;52.540;13.410;2023-03-04T02:28:45;100959.06;;;2.71;100.00
52625;BME280;38519;52.540;13.410;2023-03-04T02:31:21;100946.84;;;2.77;100.00
52625;BME280;38519;52.540;13.410;2023-03-04T02:33:47;100952.34;;;2.80;100.00
52625;BME280;38519;52.540;13.410;2023-03-04T02:36:12;100947.84;;;2.70;100.00
52625;BME280;38519;52.540;13.410;2023-03-04T02:38:37;100936.53;;;2.77;100.00
52625;BME280;38519;52.540;13.410;2023-03-04T02:41:03;100935.09;;;2.88;100.00
52625;BME280;38519;52.540;13.410;2023-03-04T02:43:28;100934.19;;;2.87;100.00
52625;BME280;38519;52.540;13.410;2023-03-04T02:45:54;100937.25;;;2.92;100.00
52625;BME280;38519;52.540;13.410;2023-03-04T02:48:20;100926.75;;;2.90;100.00
52625;BME280;38519;52.540;13.410;2023-03-04T02:50:49;100932.25;;;2.94;100.00
52625;BME280;38519;52.540;13.410;2023-03-04T02:53:15;100929.59;;;3.01;100.00
52625;BME280;38519;52.540;13.410;2023-03-04T02:55:41;100920.22;;;2.85;100.00
52625;BME280;38519;52.540;13.410;2023-03-04T02:58:07;100924.69;;;2.95;100.00
52625;BME280;38519;52.540;13.410;2023-03-04T03:00:33;100928.84;;;3.02;100.00
52625;BME280;38519;52.540;13.410;2023-03-04T03:02:58;100927.16;;;3.02;100.00
52625;BME280;38519;52.540;13.410;2023-03-04T03:05:25;100916.03;;;2.95;100.00
52625;BME280;38519;52.540;13.410;2023-03-04T03:07:50;100922.41;;;2.98;100.00
52625;BME280;38519;52.540;13.410;2023-03-04T03:10:16;100925.44;;;2.94;100.00
52625;BME280;38519;52.540;13.410;2023-03-04T03:12:41;100914.28;;;3.02;100.00
52625;BME280;38519;52.540;13.410;2023-03-04T03:15:06;100924.50;;;2.94;100.00
52625;BME280;38519;52.540;13.410;2023-03-04T03:17:32;100927.81;;;3.08;100.00
52625;BME280;38519;52.540;13.410;2023-03-04T03:19:57;100917.88;;;2.96;100.00
52625;BME280;38519;52.540;13.410;2023-03-04T03:22:23;100910.13;;;2.96;100.00
52625;BME280;38519;52.540;13.410;2023-03-04T03:24:48;100912.34;;;3.08;100.00
52625;BME280;38519;52.540;13.410;2023-03-04T03:27:13;100904.94;;;3.12;100.00
52625;BME280;38519;52.540;13.410;2023-03-04T03:29:39;100907.75;;;3.06;100.00
52625;BME280;38519;52.540;13.410;2023-03-04T03:32:04;100902.34;;;3.12;100.00
52625;BME280;38519;52.540;13.410;2023-03-04T03:34:29;100899.44;;;3.08;100.00
52625;BME280;38519;52.540;13.410;2023-03-04T03:36:54;100896.41;;;3.13;100.00
52625;BME280;38519;52.540;13.410;2023-03-04T03:39:20;100887.69;;;3.03;100.00
52625;BME280;38519;52.540;13.410;2023-03-04T03:41:46;100887.78;;;3.12;100.00
52625;BME280;38519;52.540;13.410;2023-03-04T03:44:11;100887.19;;;3.15;100.00
52625;BME280;38519;52.540;13.410;2023-03-04T03:46:36;100878.34;;;3.13;100.00
52625;BME280;38519;52.540;13.410;2023-03-04T03:49:01;100887.59;;;3.10;100.00
52625;BME280;38519;52.540;13.410;2023-03-04T03:51:27;100886.59;;;3.17;100.00
52625;BME280;38519;52.540;13.410;2023-03-04T03:53:52;100889.66;;;3.22;100.00
52625;BME280;38519;52.540;13.410;2023-03-04T03:56:17;100881.00;;;3.21;100.00
52625;BME280;38519;52.540;13.410;2023-03-04T03:58:43;100883.91;;;3.24;100.00
52625;BME280;38519;52.540;13.410;2023-03-04T04:01:08;100881.25;;;3.16;100.00
52625;BME280;38519;52.540;13.410;2023-03-04T04:03:33;100882.03;;;3.15;100.00
52625;BME280;38519;52.540;13.410;2023-03-04T04:05:59;100875.38;;;3.25;100.00
52625;BME280;38519;52.540;13.410;2023-03-04T04:08:24;100875.22;;;3.24;100.00
52625;BME280;38519;52.540;13.410;2023-03-04T04:10:49;100875.88;;;3.30;100.00
52625;BME280;38519;52.540;13.410;2023-03-04T04:13:15;100879.97;;;3.28;100.00
52625;BME280;38519;52.540;13.410;2023-03-04T04:15:40;100864.19;;;3.34;100.00
52625;BME280;38519;52.540;13.410;2023-03-04T04:18:06;100869.66;;;3.37;100.00
52625;BME280;38519;52.540;13.410;2023-03-04T04:20:31;100868.94;;;3.38;100.00
52625;BME280;38519;52.540;13.410;2023-03-04T04:22:56;100866.78;;;3.34;100.00
52625;BME280;38519;52.540;13.410;2023-03-04T04:25:22;100875.16;;;3.40;100.00
52625;BME280;38519;52.540;13.410;2023-03-04T04:27:47;100863.94;;;3.48;100.00
52625;BME280;38519;52.540;13.410;2023-03-04T04:30:12;100862.56;;;3.43;100.00
52625;BME280;38519;52.540;13.410;2023-03-04T04:32:37;100854.56;;;3.49;100.00
52625;BME280;38519;52.540;13.410;2023-03-04T04:35:03;100861.69;;;3.51;100.00
52625;BME280;38519;52.540;13.410;2023-03-04T04:37:28;100860.03;;;3.52;100.00
52625;BME280;38519;52.540;13.410;2023-03-04T04:39:53;100860.34;;;3.55;100.00
52625;BME280;38519;52.540;13.410;2023-03-04T04:42:19;100861.84;;;3.53;100.00
52625;BME280;38519;52.540;13.410;2023-03-04T04:44:45;100857.91;;;3.56;100.00
52625;BME280;38519;52.540;13.410;2023-03-04T04:47:10;100856.84;;;3.54;100.00
52625;BME280;38519;52.540;13.410;2023-03-04T04:49:35;100855.78;;;3.52;100.00
52625;BME280;38519;52.540;13.410;2023-03-04T04:52:00;100854.25;;;3.54;100.00
52625;BME280;38519;52.540;13.410;2023-03-04T04:54:26;100853.38;;;3.62;100.00
52625;BME280;38519;52.540;13.410;2023-03-04T04:56:51;100851.41;;;3.60;100.00
52625;BME280;38519;52.540;13.410;2023-03-04T04:59:16;100843.69;;;3.69;100.00
52625;BME280;38519;52.540;13.410;2023-03-04T05:01:41;100844.31;;;3.75;100.00
52625;BME280;38519;52.540;13.410;2023-03-04T05:04:07;100850.22;;;3.74;100.00
52625;BME280;38519;52.540;13.410;2023-03-04T05:06:32;100840.97;;;3.76;100.00
52625;BME280;38519;52.540;13.410;2023-03-04T05:08:57;100843.41;;;3.83;100.00
52625;BME280;38519;52.540;13.410;2023-03-04T05:11:23;100848.25;;;3.80;100.00
52625;BME280;38519;52.540;13.410;2023-03-04T05:13:48;100850.25;;;3.82;100.00
52625;BME280;38519;52.540;13.410;2023-03-04T05:16:14;100850.41;;;3.84;100.00
52625;BME280;38519;52.540;13.410;2023-03-04T05:18:39;100843.72;;;3.86;100.00
52625;BME280;38519;52.540;13.410;2023-03-04T05:21:05;100838.56;;;3.86;100.00
52625;BME280;38519;52.540;13.410;2023-03-04T05:23:32;100843.88;;;3.88;100.00
52625;BME280;38519;52.540;13.410;2023-03-04T05:25:58;100834.44;;;3.88;100.00
52625;BME280;38519;52.540;13.410;2023-03-04T05:28:23;100840.56;;;3.89;100.00
52625;BME280;38519;52.540;13.410;2023-03-04T05:30:48;100832.75;;;3.80;100.00
52625;BME280;38519;52.540;13.410;2023-03-04T05:33:14;100840.06;;;3.84;100.00
52625;BME280;38519;52.540;13.410;2023-03-04T05:35:40;100847.06;;;3.85;100.00
52625;BME280;38519;52.540;13.410;2023-03-04T05:38:07;100845.88;;;3.90;100.00
52625;BME280;38519;52.540;13.410;2023-03-04T05:40:33;100838.13;;;3.90;100.00
52625;BME280;38519;52.540;13.410;2023-03-04T05:42:58;100837.03;;;3.88;100.00
52625;BME280;38519;52.540;13.410;2023-03-04T05:45:25;100834.59;;;3.90;100.00
52625;BME280;38519;52.540;13.410;2023-03-04T05:47:51;100839.50;;;3.95;100.00
52625;BME280;38519;52.540;13.410;2023-03-04T05:50:16;100843.44;;;3.92;100.00
52625;BME280;38519;52.540;13.410;2023-03-04T05:52:42;100840.09;;;3.93;100.00
52625;BME280;38519;52.540;13.410;2023-03-04T05:55:08;100827.16;;;3.93;100.00
52625;BME280;38519;52.540;13.410;2023-03-04T05:57:33;100832.19;;;3.82;100.00
52625;BME280;38519;52.540;13.410;2023-03-04T05:59:58;100829.56;;;3.74;100.00
52625;BME280;38519;52.540;13.410;2023-03-04T06:02:24;100837.03;;;3.88;100.00
52625;BME280;38519;52.540;13.410;2023-03-04T06:04:49;100843.56;;;3.85;100.00
52625;BME280;38519;52.540;13.410;2023-03-04T06:07:15;100833.06;;;3.83;100.00
52625;BME280;38519;52.540;13.410;2023-03-04T06:09:40;100830.50;;;3.83;100.00
52625;BME280;38519;52.540;13.410;2023-03-04T06:12:06;100840.25;;;3.86;100.00
52625;BME280;38519;52.540;13.410;2023-03-04T06:14:31;100835.81;;;3.85;100.00
52625;BME280;38519;52.540;13.410;2023-03-04T06:16:56;100843.88;;;3.79;100.00
52625;BME280;38519;52.540;13.410;2023-03-04T06:19:22;100835.81;;;3.85;100.00
52625;BME280;38519;52.540;13.410;2023-03-04T06:21:47;100835.22;;;3.87;100.00
52625;BME280;38519;52.540;13.410;2023-03-04T06:24:12;100842.19;;;3.88;100.00
52625;BME280;38519;52.540;13.410;2023-03-04T06:26:37;100840.25;;;3.86;100.00
52625;BME280;38519;52.540;13.410;2023-03-04T06:29:03;100842.50;;;3.91;100.00
52625;BME280;38519;52.540;13.410;2023-03-04T06:31:29;100847.84;;;3.84;100.00
52625;BME280;38519;52.540;13.410;2023-03-04T06:33:54;100835.81;;;3.85;100.00
52625;BME280;38519;52.540;13.410;2023-03-04T06:36:19;100835.06;;;3.86;100.00
52625;BME280;38519;52.540;13.410;2023-03-04T06:38:44;100837.03;;;3.79;100.00
52625;BME280;38519;52.540;13.410;2023-03-04T06:41:10;100844.03;;;3.80;100.00
52625;BME280;38519;52.540;13.410;2023-03-04T06:43:36;100837.47;;;3.75;100.00
52625;BME280;38519;52.540;13.410;2023-03-04T06:46:02;100845.66;;;3.71;100.00
52625;BME280;38519;52.540;13.410;2023-03-04T06:48:27;100838.88;;;3.80;100.00
52625;BME280;38519;52.540;13.410;2023-03-04T06:50:52;100847.53;;;3.81;100.00
52625;BME280;38519;52.540;13.410;2023-03-04T06:53:19;100837.94;;;3.80;100.00
52625;BME280;38519;52.540;13.410;2023-03-04T06:55:44;100847.06;;;3.85;100.00
52625;BME280;38519;52.540;13.410;2023-03-04T06:58:09;100837.03;;;3.88;100.00
52625;BME280;38519;52.540;13.410;2023-03-04T07:00:34;100846.94;;;3.92;100.00
52625;BME280;38519;52.540;13.410;2023-03-04T07:03:00;100846.03;;;3.92;100.00
52625;BME280;38519;52.540;13.410;2023-03-04T07:05:25;100846.34;;;3.95;100.00
52625;BME280;38519;52.540;13.410;2023-03-04T07:07:51;100840.88;;;3.92;100.00
52625;BME280;38519;52.540;13.410;2023-03-04T07:10:19;100850.13;;;3.98;100.00
52625;BME280;38519;52.540;13.410;2023-03-04T07:12:44;100849.97;;;3.97;100.00
52625;BME280;38519;52.540;13.410;2023-03-04T07:15:10;100851.16;;;3.83;100.00
52625;BME280;38519;52.540;13.410;2023-03-04T07:17:35;100856.78;;;3.88;100.00
52625;BME280;38519;52.540;13.410;2023-03-04T07:20:00;100844.94;;;3.90;100.00
52625;BME280;38519;52.540;13.410;2023-03-04T07:22:26;100855.59;;;3.84;100.00
52625;BME280;38519;52.540;13.410;2023-03-04T07:24:51;100856.00;;;3.71;100.00
52625;BME280;38519;52.540;13.410;2023-03-04T07:27:16;100855.59;;;3.84;100.00
52625;BME280;38519;52.540;13.410;2023-03-04T07:29:41;100846.34;;;3.95;100.00
52625;BME280;38519;52.540;13.410;2023-03-04T07:32:07;100851.34;;;4.02;100.00
52625;BME280;38519;52.540;13.410;2023-03-04T07:34:32;100844.34;;;4.01;100.00
52625;BME280;38519;52.540;13.410;2023-03-04T07:36:57;100843.91;;;4.05;100.00
52625;BME280;38519;52.540;13.410;2023-03-04T07:39:23;100844.22;;;4.17;100.00
52625;BME280;38519;52.540;13.410;2023-03-04T07:41:48;100846.22;;;4.19;100.00
52625;BME280;38519;52.540;13.410;2023-03-04T07:44:13;100844.09;;;4.24;100.00
52625;BME280;38519;52.540;13.410;2023-03-04T07:46:39;100845.16;;;4.26;100.00
52625;BME280;38519;52.540;13.410;2023-03-04T07:49:04;100845.16;;;4.17;100.00
52625;BME280;38519;52.540;13.410;2023-03-04T07:51:29;100850.16;;;4.16;100.00
52625;BME280;38519;52.540;13.410;2023-03-04T07:53:56;100847.41;;;4.23;100.00
52625;BME280;38519;52.540;13.410;2023-03-04T07:56:23;100849.56;;;4.27;100.00
52625;BME280;38519;52.540;13.410;2023-03-04T07:58:48;100837.25;;;4.25;100.00
52625;BME280;38519;52.540;13.410;2023-03-04T08:01:26;100836.03;;;4.21;100.00
52625;BME280;38519;52.540;13.410;2023-03-04T08:03:52;100844.38;;;4.18;100.00
52625;BME280;38519;52.540;13.410;2023-03-04T08:06:17;100851.38;;;4.28;100.00
52625;BME280;38519;52.540;13.410;2023-03-04T08:08:43;100839.84;;;4.33;100.00
52625;BME280;38519;52.540;13.410;2023-03-04T08:11:13;100835.56;;;4.34;100.00
52625;BME280;38519;52.540;13.410;2023-03-04T08:13:38;100839.81;;;4.25;100.00
52625;BME280;38519;52.540;13.410;2023-03-04T08:16:04;100842.88;;;4.29;100.00
52625;BME280;38519;52.540;13.410;2023-03-04T08:18:29;100835.88;;;4.28;100.00
52625;BME280;38519;52.540;13.410;2023-03-04T08:20:55;100833.91;;;4.43;100.00
52625;BME280;38519;52.540;13.410;2023-03-04T08:23:20;100834.50;;;4.41;100.00
52625;BME280;38519;52.540;13.410;2023-03-04T08:25:45;100823.09;;;4.38;100.00
52625;BME280;38519;52.540;13.410;2023-03-04T08:28:11;100829.03;;;4.46;100.00
52625;BME280;38519;52.540;13.410;2023-03-04T08:30:39;100831.47;;;4.45;100.00
52625;BME280;38519;52.540;13.410;2023-03-04T08:33:05;100841.06;;;4.37;100.00
52625;BME280;38519;52.540;13.410;2023-03-04T08:35:31;100827.81;;;4.43;100.00
52625;BME280;38519;52.540;13.410;2023-03-04T08:37:56;100828.56;;;4.50;100.00
52625;BME280;38519;52.540;13.410;2023-03-04T08:40:21;100829.94;;;4.55;100.00
52625;BME280;38519;52.540;13.410;2023-03-04T08:42:48;100833.59;;;4.58;100.00
52625;BME280;38519;52.540;13.410;2023-03-04T08:45:14;100836.00;;;4.65;100.00
52625;BME280;38519;52.540;13.410;2023-03-04T08:47:39;100829.00;;;4.72;100.00
52625;BME280;38519;52.540;13.410;2023-03-04T08:50:05;100829.13;;;4.83;100.00
52625;BME280;38519;52.540;13.410;2023-03-04T08:52:31;100827.19;;;4.80;100.00
52625;BME280;38519;52.540;13.410;2023-03-04T08:54:56;100822.88;;;4.89;100.00
52625;BME280;38519;52.540;13.410;2023-03-04T08:57:21;100822.75;;;4.79;100.00
52625;BME280;38519;52.540;13.410;2023-03-04T08:59:47;100819.53;;;4.90;100.00
52625;BME280;38519;52.540;13.410;2023-03-04T09:02:12;100816.59;;;5.05;100.00
52625;BME280;38519;52.540;13.410;2023-03-04T09:04:37;100821.72;;;5.22;100.00
52625;BME280;38519;52.540;13.410;2023-03-04T09:07:03;100819.28;;;5.24;100.00
52625;BME280;38519;52.540;13.410;2023-03-04T09:09:28;100823.06;;;5.27;100.00
52625;BME280;38519;52.540;13.410;2023-03-04T09:11:53;100821.38;;;5.28;100.00
52625;BME280;38519;52.540;13.410;2023-03-04T09:14:18;100827.03;;;5.24;100.00
52625;BME280;38519;52.540;13.410;2023-03-04T09:16:44;100818.91;;;5.38;100.00
52625;BME280;38519;52.540;13.410;2023-03-04T09:19:09;100820.25;;;5.43;100.00
52625;BME280;38519;52.540;13.410;2023-03-04T09:21:34;100828.63;;;5.41;100.00
52625;BME280;38519;52.540;13.410;2023-03-04T09:23:59;100830.44;;;5.51;100.00
52625;BME280;38519;52.540;13.410;2023-03-04T09:26:26;100847.06;;;5.44;100.00
52625;BME280;38519;52.540;13.410;2023-03-04T09:28:52;100844.50;;;5.35;100.00
52625;BME280;38519;52.540;13.410;2023-03-04T09:31:18;100838.09;;;5.40;100.00
52625;BME280;38519;52.540;13.410;2023-03-04T09:33:44;100845.91;;;5.32;100.00
52625;BME280;38519;52.540;13.410;2023-03-04T09:36:11;100845.41;;;5.36;100.00
52625;BME280;38519;52.540;13.410;2023-03-04T09:38:37;100857.84;;;5.48;100.00
52625;BME280;38519;52.540;13.410;2023-03-04T09:41:03;100845.19;;;5.52;100.00
52625;BME280;38519;52.540;13.410;2023-03-04T09:43:29;100845.97;;;5.51;100.00
52625;BME280;38519;52.540;13.410;2023-03-04T09:45:57;100839.25;;;5.53;100.00
52625;BME280;38519;52.540;13.410;2023-03-04T09:48:24;100849.28;;;5.58;100.00
52625;BME280;38519;52.540;13.410;2023-03-04T09:53:39;100847.72;;;5.69;100.00
52625;BME280;38519;52.540;13.410;2023-03-04T09:56:08;100853.38;;;5.65;100.00
52625;BME280;38519;52.540;13.410;2023-03-04T09:58:38;100846.41;;;5.55;100.00
52625;BME280;38519;52.540;13.410;2023-03-04T10:01:10;100845.50;;;5.55;100.00
52625;BME280;38519;52.540;13.410;2023-03-04T10:06:21;100851.63;;;5.46;100.00
52625;BME280;38519;52.540;13.410;2023-03-04T10:09:01;100848.97;;;5.55;100.00
52625;BME280;38519;52.540;13.410;2023-03-04T10:21:42;100837.56;;;5.62;100.00
52625;BME280;38519;52.540;13.410;2023-03-04T10:24:13;100844.25;;;5.60;100.00
52625;BME280;38519;52.540;13.410;2023-03-04T10:26:38;100833.13;;;5.61;100.00
52625;BME280;38519;52.540;13.410;2023-03-04T10:29:07;100830.97;;;5.65;100.00
52625;BME280;38519;52.540;13.410;2023-03-04T10:31:34;100838.53;;;5.73;100.00
52625;BME280;38519;52.540;13.410;2023-03-04T10:34:01;100835.19;;;5.74;100.00
52625;BME280;38519;52.540;13.410;2023-03-04T10:38:53;100835.78;;;5.80;100.00
52625;BME280;38519;52.540;13.410;2023-03-04T10:41:22;100842.53;;;5.69;100.00
52625;BME280;38519;52.540;13.410;2023-03-04T10:46:24;100837.34;;;5.69;100.00
52625;BME280;38519;52.540;13.410;2023-03-04T10:48:50;100839.56;;;5.56;100.00
52625;BME280;38519;52.540;13.410;2023-03-04T10:51:21;100840.94;;;5.52;100.00
52625;BME280;38519;52.540;13.410;2023-03-04T10:53:50;100839.25;;;5.53;100.00
52625;BME280;38519;52.540;13.410;2023-03-04T10:56:30;100838.81;;;5.48;100.00
52625;BME280;38519;52.540;13.410;2023-03-04T10:59:22;100836.97;;;5.56;100.00
52625;BME280;38519;52.540;13.410;2023-03-04T11:01:40;100842.88;;;5.63;100.00
52625;BME280;38519;52.540;13.410;2023-03-04T11:04:14;100839.66;;;5.66;100.00
52625;BME280;38519;52.540;13.410;2023-03-04T11:06:41;100845.69;;;5.75;100.00
52625;BME280;38519;52.540;13.410;2023-03-04T11:09:16;100855.78;;;5.72;100.00
52625;BME280;38519;52.540;13.410;2023-03-04T11:11:44;100846.13;;;5.80;100.00
52625;BME280;38519;52.540;13.410;2023-03-04T11:14:34;100848.66;;;5.89;100.00
52625;BME280;38519;52.540;13.410;2023-03-04T11:16:59;100843.91;;;5.93;100.00
52625;BME280;38519;52.540;13.410;2023-03-04T11:19:29;100845.09;;;6.06;100.00
52625;BME280;38519;52.540;13.410;2023-03-04T11:21:55;100848.00;;;6.00;100.00
52625;BME280;38519;52.540;13.410;2023-03-04T11:24:26;100838.72;;;5.93;100.00
52625;BME280;38519;52.540;13.410;2023-03-04T11:26:55;100849.09;;;5.93;100.00
52625;BME280;38519;52.540;13.410;2023-03-04T11:29:24;100851.59;;;5.83;100.00
52625;BME280;38519;52.540;13.410;2023-03-04T11:31:54;100848.88;;;6.09;100.00
52625;BME280;38519;52.540;13.410;2023-03-04T11:36:56;100849.09;;;6.02;100.00
52625;BME280;38519;52.540;13.410;2023-03-04T11:39:26;100847.19;;;6.10;100.00
52625;BME280;38519;52.540;13.410;2023-03-04T11:41:59;100848.31;;;6.03;100.00
52625;BME280;38519;52.540;13.410;2023-03-04T11:44:25;100851.47;;;6.09;100.00
52625;BME280;38519;52.540;13.410;2023-03-04T11:49:36;100853.63;;;6.05;100.00
52625;BME280;38519;52.540;13.410;2023-03-04T11:55:32;100854.56;;;6.05;100.00
52625;BME280;38519;52.540;13.410;2023-03-04T12:00:30;100860.50;;;5.95;100.00
52625;BME280;38519;52.540;13.410;2023-03-04T12:05:26;100853.25;;;5.82;100.00
52625;BME280;38519;52.540;13.410;2023-03-04T12:08:02;100858.16;;;5.79;100.00
52625;BME280;38519;52.540;13.410;2023-03-04T12:20:38;100844.53;;;5.99;100.00
52625;BME280;38519;52.540;13.410;2023-03-04T12:25:45;100851.28;;;6.16;100.00
52625;BME280;38519;52.540;13.410;2023-03-04T12:48:30;100854.41;;;6.04;100.00
52625;BME280;38519;52.540;13.410;2023-03-04T12:51:02;100850.59;;;6.00;100.00
52625;BME280;38519;52.540;13.410;2023-03-04T12:56:02;100851.06;;;5.96;100.00
52625;BME280;38519;52.540;13.410;2023-03-04T12:58:29;100843.84;;;6.11;100.00
52625;BME280;38519;52.540;13.410;2023-03-04T13:01:01;100858.34;;;6.09;100.00
52625;BME280;38519;52.540;13.410;2023-03-04T13:11:39;100852.59;;;6.03;100.00
52625;BME280;38519;52.540;13.410;2023-03-04T13:16:44;100855.31;;;5.76;100.00
52625;BME280;38519;52.540;13.410;2023-03-04T13:21:54;100868.81;;;5.82;100.00
52625;BME280;38519;52.540;13.410;2023-03-04T13:25:25;100859.31;;;5.92;100.00
52625;BME280;38519;52.540;13.410;2023-03-04T13:29:49;100856.78;;;5.83;100.00
52625;BME280;38519;52.540;13.410;2023-03-04T13:32:14;100861.41;;;5.68;100.00
52625;BME280;38519;52.540;13.410;2023-03-04T13:34:58;100856.59;;;5.54;100.00
52625;BME280;38519;52.540;13.410;2023-03-04T13:37:31;100848.00;;;5.72;100.00
52625;BME280;38519;52.540;13.410;2023-03-04T13:40:31;100860.94;;;5.72;100.00
52625;BME280;38519;52.540;13.410;2023-03-04T13:42:52;100850.31;;;5.69;100.00
52625;BME280;38519;52.540;13.410;2023-03-04T13:47:54;100854.22;;;5.46;100.00
52625;BME280;38519;52.540;13.410;2023-03-04T13:50:22;100859.09;;;5.43;100.00
52625;BME280;38519;52.540;13.410;2023-03-04T13:52:48;100863.97;;;5.49;100.00
52625;BME280;38519;52.540;13.410;2023-03-04T13:57:56;100854.81;;;5.53;100.00
52625;BME280;38519;52.540;13.410;2023-03-04T14:00:22;100859.34;;;5.55;100.00
52625;BME280;38519;52.540;13.410;2023-03-04T14:02:47;100854.00;;;5.62;100.00
52625;BME280;38519;52.540;13.410;2023-03-04T14:05:12;100854.13;;;5.64;100.00
52625;BME280;38519;52.540;13.410;2023-03-04T14:07:38;100855.84;;;5.55;100.00
52625;BME280;38519;52.540;13.410;2023-03-04T14:12:36;100857.91;;;5.40;100.00
52625;BME280;38519;52.540;13.410;2023-03-04T14:15:05;100855.75;;;5.44;100.00
52625;BME280;38519;52.540;13.410;2023-03-04T14:17:32;100850.44;;;5.34;100.00